createdAt,value
2022-11-18T00:00:10.250Z,13.70
2022-11-18T00:02:40.546Z,11.73
2022-11-18T00:05:09.657Z,16.60
2022-11-18T00:07:38.451Z,11.27
2022-11-18T00:10:08.011Z,11.10
2022-11-18T00:13:05.865Z,12.17
2022-11-18T00:15:34.608Z,12.03
2022-11-18T00:18:04.888Z,11.70
2022-11-18T00:20:35.235Z,11.33
2022-11-18T00:23:04.021Z,12.77
2022-11-18T00:25:34.915Z,12.47
2022-11-18T00:28:03.649Z,14.53
2022-11-18T00:30:32.379Z,11.90
2022-11-18T00:33:01.133Z,12.70
2022-11-18T00:35:31.249Z,12.57
2022-11-18T00:37:59.965Z,12.53
2022-11-18T00:40:28.692Z,13.73
2022-11-18T00:42:56.439Z,11.53
2022-11-18T00:45:25.734Z,13.73
2022-11-18T00:47:54.444Z,12.80
2022-11-18T00:50:23.138Z,13.47
2022-11-18T00:52:53.271Z,12.10
2022-11-18T00:55:21.989Z,12.00
2022-11-18T00:57:50.720Z,12.23
2022-11-18T01:00:20.626Z,13.73
2022-11-18T01:02:49.689Z,14.33
2022-11-18T01:05:18.984Z,13.10
2022-11-18T01:07:48.408Z,12.27
2022-11-18T01:10:19.364Z,14.10
2022-11-18T01:13:06.065Z,12.27
2022-11-18T01:15:41.133Z,12.77
2022-11-18T01:18:09.980Z,13.53
2022-11-18T01:20:39.337Z,14.53
2022-11-18T01:23:08.019Z,12.50
2022-11-18T01:25:40.847Z,13.37
2022-11-18T01:28:09.717Z,12.00
2022-11-18T01:30:41.616Z,13.67
2022-11-18T01:33:10.604Z,11.93
2022-11-18T01:35:41.934Z,13.03
2022-11-18T01:38:12.951Z,12.60
2022-11-18T01:40:43.490Z,14.03
2022-11-18T01:43:17.653Z,14.90
2022-11-18T01:45:50.075Z,13.70
2022-11-18T01:48:24.887Z,11.73
2022-11-18T01:50:59.338Z,13.90
2022-11-18T01:53:34.949Z,15.40
2022-11-18T01:56:13.575Z,12.60
2022-11-18T01:58:51.389Z,14.63
2022-11-18T02:01:20.998Z,13.20
2022-11-18T02:03:51.759Z,15.97
2022-11-18T02:06:21.118Z,16.87
2022-11-18T02:08:51.947Z,13.13
2022-11-18T02:11:39.494Z,13.70
2022-11-18T02:14:11.593Z,14.13
2022-11-18T02:16:58.019Z,12.93
2022-11-18T02:20:00.727Z,13.67
2022-11-18T02:22:53.920Z,14.37
2022-11-18T02:25:41.026Z,15.13
2022-11-18T02:28:38.239Z,15.13
2022-11-18T02:31:17.325Z,14.67
2022-11-18T02:33:56.512Z,15.33
2022-11-18T02:36:41.421Z,14.83
2022-11-18T02:39:18.342Z,14.73
2022-11-18T02:41:50.960Z,15.83
2022-11-18T02:44:24.093Z,16.33
2022-11-18T02:47:02.084Z,16.80
2022-11-18T02:49:39.097Z,19.73
2022-11-18T02:52:12.169Z,15.37
2022-11-18T02:54:44.537Z,15.17
2022-11-18T02:57:16.634Z,18.23
2022-11-18T02:59:45.380Z,18.33
2022-11-18T03:02:19.992Z,19.33
2022-11-18T03:04:54.223Z,19.20
2022-11-18T03:07:31.291Z,22.67
2022-11-18T03:10:02.396Z,21.33
2022-11-18T03:12:44.440Z,20.27
2022-11-18T03:15:28.183Z,23.67
2022-11-18T03:18:08.774Z,24.20
2022-11-18T03:20:46.490Z,22.70
2022-11-18T03:23:26.496Z,24.80
2022-11-18T03:26:01.547Z,23.53
2022-11-18T03:28:41.337Z,24.07
2022-11-18T03:31:20.944Z,23.67
2022-11-18T03:33:57.740Z,20.47
2022-11-18T03:36:34.776Z,22.00
2022-11-18T03:39:07.888Z,21.60
2022-11-18T03:41:57.606Z,22.97
2022-11-18T03:44:34.072Z,23.33
2022-11-18T03:47:09.873Z,21.27
2022-11-18T03:49:46.938Z,19.37
2022-11-18T03:52:21.842Z,22.17
2022-11-18T03:54:57.106Z,22.47
2022-11-18T03:57:35.981Z,27.13
2022-11-18T04:00:10.055Z,20.43
2022-11-18T04:02:39.832Z,19.00
2022-11-18T04:05:14.700Z,18.60
2022-11-18T04:07:57.541Z,20.87
2022-11-18T04:10:34.466Z,23.27
2022-11-18T04:13:09.203Z,23.77
2022-11-18T04:15:40.632Z,20.37
2022-11-18T04:18:10.659Z,23.50
2022-11-18T04:20:41.285Z,26.20
2022-11-18T04:23:10.501Z,25.97
2022-11-18T04:25:39.489Z,21.03
2022-11-18T04:28:08.335Z,20.13
2022-11-18T04:30:37.538Z,19.60
2022-11-18T04:33:06.483Z,19.13
2022-11-18T04:35:35.182Z,20.10
2022-11-18T04:38:06.430Z,20.27
2022-11-18T04:40:35.168Z,19.43
2022-11-18T04:43:04.178Z,19.33
2022-11-18T04:45:32.858Z,22.53
2022-11-18T04:48:03.823Z,20.40
2022-11-18T04:50:32.739Z,22.63
2022-11-18T04:53:01.518Z,21.10
2022-11-18T04:55:31.626Z,21.03
2022-11-18T04:58:00.411Z,24.50
2022-11-18T05:00:29.368Z,21.07
2022-11-18T05:02:58.164Z,21.23
2022-11-18T05:05:27.196Z,23.13
2022-11-18T05:07:55.978Z,21.37
2022-11-18T05:10:25.981Z,20.43
2022-11-18T05:17:57.363Z,21.17
2022-11-18T05:20:24.850Z,24.17
2022-11-18T05:22:53.633Z,22.13
2022-11-18T05:25:22.531Z,21.50
2022-11-18T05:27:51.316Z,23.67
2022-11-18T05:30:23.336Z,26.23
2022-11-18T05:32:52.102Z,20.13
2022-11-18T05:35:22.235Z,23.47
2022-11-18T05:37:51.284Z,23.43
2022-11-18T05:40:20.184Z,24.47
2022-11-18T05:43:06.670Z,21.63
2022-11-18T05:45:35.562Z,22.40
2022-11-18T05:48:05.669Z,25.43
2022-11-18T05:50:39.760Z,23.87
2022-11-18T05:53:08.538Z,24.60
2022-11-18T05:55:43.473Z,24.93
2022-11-18T05:58:12.128Z,26.73
2022-11-18T06:00:41.625Z,24.77
2022-11-18T06:03:26.116Z,26.20
2022-11-18T06:06:03.108Z,30.53
2022-11-18T06:08:41.005Z,25.27
2022-11-18T06:11:16.006Z,22.93
2022-11-18T06:13:51.737Z,23.77
2022-11-18T06:16:27.869Z,21.77
2022-11-18T06:18:57.242Z,19.43
2022-11-18T06:21:27.722Z,23.07
2022-11-18T06:23:57.047Z,22.83
2022-11-18T06:26:25.980Z,23.33
2022-11-18T06:28:56.725Z,29.87
2022-11-18T06:31:25.417Z,20.70
2022-11-18T06:33:54.160Z,21.50
2022-11-18T06:36:22.895Z,19.23
2022-11-18T06:38:52.967Z,20.67
2022-11-18T06:41:21.736Z,22.13
2022-11-18T06:43:49.394Z,20.90
2022-11-18T06:46:36.558Z,20.50
2022-11-18T06:49:05.688Z,22.80
2022-11-18T06:51:34.453Z,21.07
2022-11-18T06:54:09.204Z,24.43
2022-11-18T06:56:39.843Z,22.27
2022-11-18T06:59:08.560Z,21.70
2022-11-18T07:01:40.051Z,21.83
2022-11-18T07:04:08.879Z,22.83
2022-11-18T07:06:38.661Z,21.30
2022-11-18T07:09:09.270Z,20.13
2022-11-18T07:11:40.461Z,22.10
2022-11-18T07:14:09.724Z,22.37
2022-11-18T07:16:38.954Z,21.93
2022-11-18T07:19:12.111Z,21.53
2022-11-18T07:21:42.712Z,21.90
2022-11-18T07:24:16.335Z,20.57
2022-11-18T07:26:45.344Z,20.00
2022-11-18T07:29:14.170Z,18.83
2022-11-18T07:31:42.908Z,19.23
2022-11-18T07:34:11.720Z,18.37
2022-11-18T07:36:40.733Z,17.40
2022-11-18T07:44:12.902Z,17.80
2022-11-18T07:46:42.242Z,17.53
2022-11-18T07:49:12.839Z,17.23
2022-11-18T07:51:42.179Z,18.43
2022-11-18T07:54:13.311Z,15.63
2022-11-18T07:56:42.197Z,17.77
2022-11-18T07:59:11.205Z,19.37
2022-11-18T08:01:41.428Z,17.30
2022-11-18T08:04:15.353Z,17.87
2022-11-18T08:06:44.059Z,17.73
2022-11-18T08:09:13.525Z,17.83
2022-11-18T08:11:42.331Z,19.43
2022-11-18T08:14:11.157Z,18.87
2022-11-18T08:16:41.274Z,19.37
2022-11-18T08:19:09.969Z,18.00
2022-11-18T08:21:38.750Z,20.13
2022-11-18T08:24:08.172Z,17.53
2022-11-18T08:26:37.104Z,21.47
2022-11-18T08:29:05.885Z,19.30
2022-11-18T08:31:34.613Z,15.77
2022-11-18T08:34:07.626Z,18.07
2022-11-18T08:36:39.273Z,19.70
2022-11-18T08:39:12.780Z,17.40
2022-11-18T08:41:44.031Z,15.53
2022-11-18T08:44:15.888Z,15.00
2022-11-18T08:46:46.111Z,14.77
2022-11-18T08:49:16.817Z,13.73
2022-11-18T08:51:45.930Z,14.27
2022-11-18T08:54:14.859Z,13.57
2022-11-18T08:56:43.610Z,14.60
2022-11-18T08:59:14.773Z,13.53
2022-11-18T09:01:43.768Z,14.37
2022-11-18T09:04:12.768Z,13.20
2022-11-18T09:06:42.924Z,11.50
2022-11-18T09:09:12.082Z,14.00
2022-11-18T09:11:42.486Z,12.50
2022-11-18T09:15:11.630Z,15.40
2022-11-18T09:17:02.972Z,13.30
2022-11-18T09:19:46.767Z,14.53
2022-11-18T09:22:17.986Z,17.40
2022-11-18T09:24:46.716Z,17.63
2022-11-18T09:27:17.494Z,18.00
2022-11-18T09:29:47.076Z,18.90
2022-11-18T09:32:15.886Z,20.00
2022-11-18T09:34:44.738Z,19.60
2022-11-18T09:37:13.586Z,21.63
2022-11-18T09:39:43.764Z,19.83
2022-11-18T09:42:35.473Z,22.90
2022-11-18T09:45:23.629Z,22.47
2022-11-18T09:47:55.978Z,24.10
2022-11-18T09:53:21.911Z,26.83
2022-11-18T09:55:54.209Z,27.23
2022-11-18T09:58:35.356Z,26.60
2022-11-18T10:01:10.191Z,27.43
2022-11-18T10:03:41.699Z,27.10
2022-11-18T10:13:43.486Z,28.57
2022-11-18T10:16:30.488Z,28.13
2022-11-18T10:19:11.094Z,24.63
2022-11-18T10:21:58.608Z,27.80
2022-11-18T10:24:34.719Z,29.00
2022-11-18T10:27:03.811Z,30.90
2022-11-18T10:29:33.966Z,28.10
2022-11-18T10:32:06.304Z,30.50
2022-11-18T10:34:48.911Z,27.87
2022-11-18T10:37:45.296Z,28.67
2022-11-18T10:40:28.539Z,32.17
2022-11-18T10:42:57.889Z,31.10
2022-11-18T10:45:31.363Z,30.03
2022-11-18T10:48:09.882Z,31.50
2022-11-18T10:50:42.206Z,31.57
2022-11-18T10:53:32.759Z,33.80
2022-11-18T10:56:04.172Z,32.90
2022-11-18T10:58:38.229Z,32.47
2022-11-18T11:01:15.485Z,29.90
2022-11-18T11:04:02.134Z,33.40
2022-11-18T11:06:38.210Z,31.90
2022-11-18T11:09:29.017Z,32.07
2022-11-18T11:12:04.025Z,30.03
2022-11-18T11:14:51.180Z,31.30
2022-11-18T11:17:32.263Z,24.43
2022-11-18T11:20:11.694Z,27.43
2022-11-18T11:22:41.823Z,23.73
2022-11-18T11:25:17.155Z,21.80
2022-11-18T11:30:52.399Z,18.23
2022-11-18T11:33:34.455Z,17.60
2022-11-18T11:36:43.360Z,17.07
2022-11-18T11:40:01.766Z,12.90
2022-11-18T11:42:48.772Z,13.47
2022-11-18T11:45:33.241Z,12.80
2022-11-18T11:48:32.282Z,13.70
2022-11-18T11:51:08.382Z,12.20
2022-11-18T11:54:41.477Z,12.47
2022-11-18T11:57:24.794Z,12.93
2022-11-18T12:00:03.901Z,14.53
2022-11-18T12:03:02.004Z,16.43
2022-11-18T12:05:37.048Z,18.67
2022-11-18T12:08:14.143Z,17.70
2022-11-18T12:10:51.824Z,19.57
2022-11-18T12:13:37.889Z,21.27
2022-11-18T12:16:28.105Z,19.33
2022-11-18T12:19:02.460Z,18.27
2022-11-18T12:22:00.758Z,19.00
2022-11-18T12:24:34.465Z,18.43
2022-11-18T12:27:12.560Z,19.50
2022-11-18T12:29:55.982Z,20.07
2022-11-18T12:32:36.711Z,23.37
2022-11-18T12:35:26.256Z,23.17
2022-11-18T12:38:05.436Z,22.93
2022-11-18T12:40:47.229Z,28.60
2022-11-18T12:44:07.391Z,27.37
2022-11-18T12:47:00.808Z,28.80
2022-11-18T12:50:14.322Z,28.83
2022-11-18T12:52:57.017Z,31.57
2022-11-18T12:55:39.390Z,29.97
2022-11-18T12:58:25.725Z,30.97
2022-11-18T13:01:09.478Z,32.20
2022-11-18T13:03:38.263Z,29.87
2022-11-18T13:06:21.803Z,30.93
2022-11-18T13:08:55.929Z,29.87
2022-11-18T13:11:46.870Z,30.37
2022-11-18T13:14:41.841Z,29.50
2022-11-18T13:17:49.073Z,30.00
2022-11-18T13:20:31.131Z,30.77
2022-11-18T13:23:19.968Z,29.87
2022-11-18T13:25:51.434Z,31.20
2022-11-18T13:28:33.266Z,30.40
2022-11-18T13:31:10.918Z,31.50
2022-11-18T13:33:42.096Z,32.43
2022-11-18T13:36:19.609Z,35.67
2022-11-18T13:38:58.613Z,35.03
2022-11-18T13:41:32.802Z,34.53
2022-11-18T13:44:20.707Z,34.90
2022-11-18T13:46:53.992Z,33.10
2022-11-18T13:49:50.368Z,37.77
2022-11-18T13:52:25.963Z,35.30
2022-11-18T13:54:57.181Z,36.10
2022-11-18T13:57:29.664Z,35.20
2022-11-18T14:00:07.137Z,33.10
2022-11-18T14:02:46.411Z,33.27
2022-11-18T14:05:22.003Z,33.00
2022-11-18T14:08:06.214Z,33.00
2022-11-18T14:10:43.918Z,31.83
2022-11-18T14:13:26.110Z,33.27
2022-11-18T14:15:59.702Z,32.90
2022-11-18T14:18:34.151Z,32.30
2022-11-18T14:21:06.564Z,31.77
2022-11-18T14:23:38.154Z,31.67
2022-11-18T14:26:09.037Z,29.93
2022-11-18T14:28:39.724Z,31.20
2022-11-18T14:31:27.263Z,30.13
2022-11-18T14:34:17.585Z,28.80
2022-11-18T14:36:47.904Z,30.90
2022-11-18T14:39:31.578Z,32.33
2022-11-18T14:42:01.871Z,34.07
2022-11-18T14:44:30.798Z,32.67
2022-11-18T14:47:21.174Z,33.20
2022-11-18T14:49:50.120Z,30.77
2022-11-18T14:52:18.835Z,33.90
2022-11-18T14:54:48.858Z,33.47
2022-11-18T14:57:19.193Z,34.23
2022-11-18T14:59:48.108Z,33.77
2022-11-18T15:02:19.653Z,36.67
2022-11-18T15:04:50.817Z,35.17
2022-11-18T15:07:23.945Z,38.43
2022-11-18T15:09:53.175Z,37.30
2022-11-18T15:12:22.009Z,36.63
2022-11-18T15:14:50.955Z,38.73
2022-11-18T15:17:21.122Z,36.70
2022-11-18T15:19:49.918Z,38.17
2022-11-18T15:22:18.688Z,37.37
2022-11-18T15:24:47.356Z,36.43
2022-11-18T15:27:16.139Z,38.80
2022-11-18T15:29:44.940Z,37.53
2022-11-18T15:32:13.648Z,43.57
2022-11-18T15:34:43.791Z,37.17
2022-11-18T15:37:13.983Z,39.13
2022-11-18T15:39:42.897Z,39.63
2022-11-18T15:42:12.255Z,37.20
2022-11-18T15:44:41.074Z,39.50
2022-11-18T15:47:09.820Z,37.27
2022-11-18T15:49:43.176Z,39.63
2022-11-18T15:52:13.979Z,41.77
2022-11-18T15:54:42.780Z,39.10
2022-11-18T15:57:11.726Z,38.47
2022-11-18T15:59:40.850Z,38.40
2022-11-18T16:02:12.053Z,40.43
2022-11-18T16:04:41.177Z,39.63
2022-11-18T16:07:10.183Z,39.97
2022-11-18T16:09:57.835Z,40.80
2022-11-18T16:12:44.198Z,37.97
2022-11-18T16:15:30.430Z,38.03
2022-11-18T16:17:59.580Z,45.10
2022-11-18T16:20:29.170Z,37.90
2022-11-18T16:23:00.697Z,47.23
2022-11-18T16:25:30.892Z,44.13
2022-11-18T16:28:06.814Z,40.33
2022-11-18T16:31:02.387Z,44.03
2022-11-18T16:33:31.250Z,42.23
2022-11-18T16:36:00.147Z,42.90
2022-11-18T16:38:28.974Z,42.90
2022-11-18T16:41:00.625Z,42.37
2022-11-18T16:43:29.535Z,45.73
2022-11-18T16:45:58.204Z,45.87
2022-11-18T16:48:26.895Z,46.10
2022-11-18T16:51:20.383Z,44.27
2022-11-18T16:53:54.023Z,43.20
2022-11-18T16:56:26.959Z,46.43
2022-11-18T16:58:59.643Z,46.40
2022-11-18T17:01:30.544Z,45.67
2022-11-18T17:04:01.395Z,45.73
2022-11-18T17:06:32.695Z,44.37
2022-11-18T17:09:01.655Z,44.63
2022-11-18T17:11:32.835Z,44.83
2022-11-18T17:14:03.473Z,43.63
2022-11-18T17:16:32.456Z,47.37
2022-11-18T17:19:10.189Z,47.60
2022-11-18T17:21:40.901Z,44.27
2022-11-18T17:24:12.152Z,41.30
2022-11-18T17:26:43.257Z,46.20
2022-11-18T17:29:15.034Z,42.13
2022-11-18T17:31:44.293Z,43.80
2022-11-18T17:34:15.552Z,39.63
2022-11-18T17:36:45.298Z,39.83
2022-11-18T17:39:16.129Z,40.13
2022-11-18T17:42:07.539Z,42.23
2022-11-18T17:44:36.490Z,44.97
2022-11-18T17:47:05.996Z,41.80
2022-11-18T17:49:34.837Z,35.90
2022-11-18T17:52:03.780Z,34.20
2022-11-18T17:54:32.891Z,34.90
2022-11-18T17:57:03.174Z,34.77
2022-11-18T17:59:32.908Z,37.00
2022-11-18T18:02:02.123Z,33.43
2022-11-18T18:04:31.013Z,34.87
2022-11-18T18:06:59.909Z,34.40
2022-11-18T18:09:31.296Z,36.23
2022-11-18T18:12:23.556Z,32.80
2022-11-18T18:14:52.588Z,32.07
2022-11-18T18:17:22.018Z,32.70
2022-11-18T18:19:50.712Z,33.10
2022-11-18T18:22:19.483Z,28.67
2022-11-18T18:24:48.396Z,30.53
2022-11-18T18:27:18.866Z,28.47
2022-11-18T18:29:47.644Z,32.00
2022-11-18T18:32:16.439Z,28.03
2022-11-18T18:34:45.127Z,28.13
2022-11-18T18:37:14.968Z,28.20
2022-11-18T18:39:43.778Z,25.07
2022-11-18T18:42:12.613Z,28.07
2022-11-18T18:45:00.521Z,33.10
2022-11-18T18:47:29.694Z,28.37
2022-11-18T18:49:58.691Z,26.23
2022-11-18T18:52:27.600Z,26.87
2022-11-18T18:54:56.834Z,22.10
2022-11-18T18:57:26.439Z,21.77
2022-11-18T18:59:56.555Z,21.77
2022-11-18T19:02:25.304Z,22.40
2022-11-18T19:04:55.561Z,18.97
2022-11-18T19:07:24.518Z,23.43
2022-11-18T19:09:53.352Z,19.63
2022-11-18T19:12:40.561Z,20.60
2022-11-18T19:15:12.945Z,22.70
2022-11-18T19:17:42.681Z,21.07
2022-11-18T19:20:31.749Z,21.10
2022-11-18T19:23:05.612Z,19.40
2022-11-18T19:25:37.878Z,18.43
2022-11-18T19:28:06.972Z,18.43
2022-11-18T19:30:37.153Z,18.63
2022-11-18T19:33:06.085Z,17.50
2022-11-18T19:35:35.114Z,18.73
2022-11-18T19:38:03.845Z,17.67
2022-11-18T19:40:32.511Z,16.43
2022-11-18T19:43:01.219Z,14.60
2022-11-18T19:45:30.156Z,14.83
2022-11-18T19:48:01.850Z,14.40
2022-11-18T19:50:30.900Z,15.47
2022-11-18T19:53:19.733Z,15.27
2022-11-18T19:55:55.955Z,14.33
2022-11-18T19:58:26.080Z,14.93
2022-11-18T20:00:55.236Z,13.17
2022-11-18T20:03:25.606Z,14.60
2022-11-18T20:05:54.331Z,14.97
2022-11-18T20:08:25.411Z,12.53
2022-11-18T20:10:54.848Z,12.53
2022-11-18T20:13:23.724Z,15.40
2022-11-18T20:15:53.066Z,13.03
2022-11-18T20:18:23.285Z,12.43
2022-11-18T20:20:53.634Z,11.87
2022-11-18T20:23:22.566Z,12.30
2022-11-18T20:25:51.514Z,13.40
2022-11-18T20:28:20.356Z,11.87
2022-11-18T20:30:53.928Z,12.33
2022-11-18T20:33:23.071Z,11.93
2022-11-18T20:35:53.379Z,12.43
2022-11-18T20:38:22.200Z,10.63
2022-11-18T20:40:51.600Z,11.80
2022-11-18T20:43:21.825Z,11.40
2022-11-18T20:45:56.113Z,11.70
2022-11-18T20:48:25.607Z,11.57
2022-11-18T20:50:55.943Z,11.33
2022-11-18T20:53:26.732Z,13.40
2022-11-18T20:55:56.087Z,12.17
2022-11-18T20:58:25.460Z,12.77
2022-11-18T21:01:01.568Z,12.67
2022-11-18T21:03:31.252Z,14.27
2022-11-18T21:06:12.504Z,14.67
2022-11-18T21:08:43.772Z,14.17
2022-11-18T21:11:14.583Z,13.30
2022-11-18T21:14:01.062Z,13.07
2022-11-18T21:16:38.779Z,11.13
2022-11-18T21:19:17.021Z,13.43
2022-11-18T21:21:49.230Z,12.50
2022-11-18T21:24:20.718Z,11.30
2022-11-18T21:26:54.518Z,12.13
2022-11-18T21:29:25.927Z,13.30
2022-11-18T21:31:55.594Z,11.77
2022-11-18T21:34:24.974Z,12.33
2022-11-18T21:36:55.559Z,13.53
2022-11-18T21:39:25.478Z,13.00
2022-11-18T21:41:57.287Z,14.40
2022-11-18T21:44:28.189Z,12.47
2022-11-18T21:46:58.685Z,14.97
2022-11-18T21:49:27.860Z,12.90
2022-11-18T21:51:57.962Z,14.53
2022-11-18T21:54:26.751Z,15.37
2022-11-18T21:56:55.645Z,14.30
2022-11-18T21:59:24.431Z,14.17
2022-11-18T22:02:07.309Z,13.87
2022-11-18T22:04:53.754Z,15.93
2022-11-18T22:07:25.572Z,12.77
2022-11-18T22:09:55.299Z,14.70
2022-11-18T22:12:24.130Z,14.90
2022-11-18T22:14:52.962Z,14.33
2022-11-18T22:17:21.722Z,15.83
2022-11-18T22:19:50.421Z,17.90
2022-11-18T22:22:19.182Z,16.47
2022-11-18T22:24:49.308Z,16.80
2022-11-18T22:27:18.044Z,15.23
2022-11-18T22:29:46.764Z,14.33
2022-11-18T22:32:15.459Z,14.90
2022-11-18T22:34:47.961Z,13.60
2022-11-18T22:37:19.335Z,13.33
2022-11-18T22:39:49.404Z,14.30
2022-11-18T22:42:35.611Z,12.43
2022-11-18T22:45:04.380Z,13.70
2022-11-18T22:47:33.271Z,13.07
2022-11-18T22:50:01.978Z,12.80
2022-11-18T22:52:30.765Z,13.03
2022-11-18T22:55:00.953Z,15.03
2022-11-18T22:57:35.153Z,11.00
2022-11-18T23:00:04.864Z,12.77
2022-11-18T23:02:33.626Z,12.47
2022-11-18T23:05:02.339Z,13.27
2022-11-18T23:07:31.118Z,13.43
2022-11-18T23:10:01.675Z,14.40
2022-11-18T23:12:48.049Z,14.07
2022-11-18T23:15:16.988Z,13.83
2022-11-18T23:17:45.752Z,12.90
2022-11-18T23:20:14.592Z,13.33
2022-11-18T23:22:43.373Z,13.93
2022-11-18T23:25:13.532Z,14.93
2022-11-18T23:27:42.323Z,14.63
2022-11-18T23:30:12.605Z,12.13
2022-11-18T23:32:41.452Z,14.10
2022-11-18T23:35:10.679Z,14.27
2022-11-18T23:37:39.394Z,13.90
2022-11-18T23:40:10.232Z,14.33
2022-11-18T23:42:40.337Z,13.20
2022-11-18T23:45:10.860Z,13.80
2022-11-18T23:47:39.669Z,14.27
2022-11-18T23:50:09.668Z,14.33
2022-11-18T23:52:41.764Z,15.43
2022-11-18T23:55:11.380Z,15.30
2022-11-18T23:57:41.504Z,19.77
